createdAt,value
2022-09-12T00:01:43.710Z,32.20
2022-09-12T00:03:48.123Z,35.83
2022-09-12T00:05:51.673Z,24.27
2022-09-12T00:07:55.284Z,23.87
2022-09-12T00:09:58.751Z,18.97
2022-09-12T00:12:02.259Z,20.90
2022-09-12T00:14:07.069Z,19.53
2022-09-12T00:16:18.210Z,21.83
2022-09-12T00:18:21.579Z,18.40
2022-09-12T00:20:26.681Z,18.20
2022-09-12T00:22:30.078Z,15.20
2022-09-12T00:24:33.984Z,18.73
2022-09-12T00:26:37.649Z,18.93
2022-09-12T00:28:42.772Z,15.77
2022-09-12T00:30:48.897Z,17.97
2022-09-12T00:32:54.715Z,16.00
2022-09-12T00:34:58.160Z,14.17
2022-09-12T00:37:02.027Z,14.90
2022-09-12T00:39:06.436Z,17.03
2022-09-12T00:41:16.259Z,14.40
2022-09-12T00:43:37.040Z,12.80
2022-09-12T00:45:42.425Z,17.70
2022-09-12T00:47:45.849Z,19.93
2022-09-12T00:49:55.931Z,18.67
2022-09-12T00:52:04.308Z,13.53
2022-09-12T00:54:13.667Z,15.93
2022-09-12T00:56:19.316Z,17.23
2022-09-12T00:58:26.235Z,16.40
2022-09-12T01:00:30.525Z,17.07
2022-09-12T01:02:35.374Z,18.40
2022-09-12T01:04:42.589Z,14.27
2022-09-12T01:06:48.592Z,17.93
2022-09-12T01:08:53.748Z,17.93
2022-09-12T01:10:58.547Z,14.87
2022-09-12T01:13:02.464Z,15.23
2022-09-12T01:15:07.132Z,17.03
2022-09-12T01:17:13.949Z,16.30
2022-09-12T01:19:45.390Z,16.83
2022-09-12T01:22:06.500Z,15.40
2022-09-12T01:24:40.107Z,19.33
2022-09-12T01:27:14.032Z,16.00
2022-09-12T01:29:31.502Z,14.80
2022-09-12T01:31:42.214Z,17.97
2022-09-12T01:34:01.266Z,15.70
2022-09-12T01:36:25.785Z,15.50
2022-09-12T01:38:37.779Z,15.10
2022-09-12T01:40:46.721Z,14.63
2022-09-12T01:42:58.903Z,13.47
2022-09-12T01:45:09.071Z,14.80
2022-09-12T01:47:50.000Z,16.40
2022-09-12T01:50:01.348Z,14.80
2022-09-12T01:52:13.462Z,16.50
2022-09-12T01:54:23.096Z,18.03
2022-09-12T01:56:28.651Z,13.67
2022-09-12T01:58:41.346Z,17.23
2022-09-12T02:00:52.030Z,13.53
2022-09-12T02:03:02.280Z,19.00
2022-09-12T02:05:10.507Z,15.87
2022-09-12T02:07:19.257Z,12.30
2022-09-12T02:09:26.834Z,13.67
2022-09-12T02:11:35.231Z,14.90
2022-09-12T02:13:43.266Z,16.20
2022-09-12T02:15:53.514Z,12.50
2022-09-12T02:18:02.540Z,15.10
2022-09-12T02:20:17.757Z,14.00
2022-09-12T02:22:38.320Z,16.43
2022-09-12T02:24:47.013Z,14.20
2022-09-12T02:26:55.752Z,11.63
2022-09-12T02:28:59.283Z,17.03
2022-09-12T02:31:14.672Z,12.30
2022-09-12T02:33:26.697Z,19.37
2022-09-12T02:35:40.208Z,20.30
2022-09-12T02:37:55.997Z,11.97
2022-09-12T02:40:00.818Z,14.13
2022-09-12T02:42:05.666Z,12.13
2022-09-12T02:44:09.006Z,14.00
2022-09-12T02:46:18.962Z,14.07
2022-09-12T02:48:28.602Z,12.70
2022-09-12T02:50:33.159Z,13.50
2022-09-12T02:52:36.886Z,14.27
2022-09-12T02:54:40.780Z,12.83
2022-09-12T02:56:46.075Z,13.93
2022-09-12T02:58:49.980Z,11.67
2022-09-12T03:01:01.867Z,17.00
2022-09-12T03:03:30.949Z,13.20
2022-09-12T03:05:38.891Z,14.20
2022-09-12T03:08:05.890Z,12.80
2022-09-12T03:10:21.108Z,13.97
2022-09-12T03:12:41.801Z,12.77
2022-09-12T03:15:02.001Z,14.70
2022-09-12T03:17:16.224Z,14.50
2022-09-12T03:19:28.130Z,14.20
2022-09-12T03:21:38.187Z,16.27
2022-09-12T03:23:47.013Z,12.60
2022-09-12T03:25:55.574Z,11.37
2022-09-12T03:28:06.114Z,11.97
2022-09-12T03:30:10.930Z,14.13
2022-09-12T03:32:15.748Z,12.97
2022-09-12T03:34:19.599Z,13.50
2022-09-12T03:36:27.220Z,12.13
2022-09-12T03:38:30.590Z,10.17
2022-09-12T03:40:33.965Z,11.90
2022-09-12T03:42:37.263Z,11.50
2022-09-12T03:44:40.559Z,10.77
2022-09-12T03:46:44.684Z,12.10
2022-09-12T03:48:48.139Z,11.87
2022-09-12T03:50:51.486Z,13.80
2022-09-12T03:52:59.541Z,11.93
2022-09-12T03:55:03.404Z,10.10
2022-09-12T03:57:07.029Z,11.77
2022-09-12T03:59:10.395Z,11.87
2022-09-12T04:01:16.246Z,11.07
2022-09-12T04:03:19.891Z,13.67
2022-09-12T04:05:24.002Z,12.23
2022-09-12T04:07:27.628Z,9.47
2022-09-12T04:09:32.345Z,12.33
2022-09-12T04:11:36.750Z,13.47
2022-09-12T04:13:41.488Z,11.83
2022-09-12T04:15:59.976Z,10.37
2022-09-12T04:18:08.989Z,10.90
2022-09-12T04:20:18.146Z,11.80
2022-09-12T04:22:21.456Z,12.17
2022-09-12T04:24:25.844Z,11.93
2022-09-12T04:26:31.754Z,14.07
2022-09-12T04:28:37.189Z,11.33
2022-09-12T04:30:40.602Z,11.83
2022-09-12T04:32:46.034Z,16.70
2022-09-12T04:34:49.459Z,11.50
2022-09-12T04:36:53.055Z,10.10
2022-09-12T04:38:56.951Z,12.03
2022-09-12T04:41:00.292Z,11.50
2022-09-12T04:43:06.117Z,12.50
2022-09-12T04:45:10.169Z,11.13
2022-09-12T04:47:13.539Z,11.20
2022-09-12T04:49:19.250Z,11.37
2022-09-12T04:51:25.960Z,11.40
2022-09-12T04:53:33.626Z,10.93
2022-09-12T04:55:37.148Z,10.07
2022-09-12T04:57:41.315Z,9.87
2022-09-12T04:59:46.034Z,12.23
2022-09-12T05:01:49.584Z,13.47
2022-09-12T05:03:53.434Z,12.20
2022-09-12T05:05:56.867Z,12.90
2022-09-12T05:08:01.143Z,11.13
2022-09-12T05:10:05.254Z,9.40
2022-09-12T05:12:09.419Z,11.50
2022-09-12T05:14:13.734Z,10.23
2022-09-12T05:16:20.014Z,11.47
2022-09-12T05:18:23.571Z,11.13
2022-09-12T05:20:26.995Z,10.77
2022-09-12T05:22:30.287Z,9.80
2022-09-12T05:24:33.916Z,9.77
2022-09-12T05:26:37.218Z,10.13
2022-09-12T05:28:41.419Z,8.20
2022-09-12T05:30:44.882Z,12.37
2022-09-12T05:32:49.681Z,9.00
2022-09-12T05:34:54.255Z,12.20
2022-09-12T05:36:59.410Z,10.70
2022-09-12T05:39:03.738Z,8.90
2022-09-12T05:41:12.396Z,9.37
2022-09-12T05:43:20.316Z,10.20
2022-09-12T05:45:23.853Z,9.13
2022-09-12T05:47:27.866Z,10.27
2022-09-12T05:49:32.608Z,9.77
2022-09-12T05:51:38.440Z,11.30
2022-09-12T05:53:42.708Z,13.07
2022-09-12T05:55:46.053Z,17.20
2022-09-12T05:57:49.627Z,15.13
2022-09-12T05:59:52.994Z,12.87
2022-09-12T06:01:56.531Z,13.57
2022-09-12T06:04:01.745Z,11.37
2022-09-12T06:06:07.907Z,11.80
2022-09-12T06:08:11.250Z,9.67
2022-09-12T06:10:15.998Z,11.23
2022-09-12T06:12:20.013Z,12.77
2022-09-12T06:14:23.395Z,10.37
2022-09-12T06:16:29.545Z,11.17
2022-09-12T06:18:33.237Z,10.93
2022-09-12T06:20:37.200Z,8.53
2022-09-12T06:22:42.397Z,9.77
2022-09-12T06:24:46.839Z,10.33
2022-09-12T06:26:52.583Z,9.60
2022-09-12T06:28:57.806Z,10.83
2022-09-12T06:31:05.788Z,11.00
2022-09-12T06:33:09.163Z,9.57
2022-09-12T06:35:13.723Z,8.73
2022-09-12T06:37:17.287Z,10.17
2022-09-12T06:39:23.836Z,10.20
2022-09-12T06:41:27.628Z,10.33
2022-09-12T06:43:32.419Z,12.83
2022-09-12T06:45:36.163Z,10.50
2022-09-12T06:47:40.524Z,11.87
2022-09-12T06:49:44.082Z,8.37
2022-09-12T06:51:47.650Z,10.43
2022-09-12T06:53:52.338Z,12.07
2022-09-12T06:56:01.172Z,14.23
2022-09-12T06:58:05.488Z,9.80
2022-09-12T07:00:10.371Z,12.27
2022-09-12T07:02:13.788Z,10.93
2022-09-12T07:04:17.150Z,11.20
2022-09-12T07:06:24.071Z,10.53
2022-09-12T07:08:28.677Z,10.77
2022-09-12T07:10:32.108Z,9.47
2022-09-12T07:12:37.071Z,10.90
2022-09-12T07:14:40.361Z,11.40
2022-09-12T07:16:45.160Z,12.60
2022-09-12T07:18:52.066Z,9.70
2022-09-12T07:20:55.586Z,12.67
2022-09-12T07:22:59.613Z,9.23
2022-09-12T07:25:03.114Z,7.97
2022-09-12T07:27:07.013Z,14.17
2022-09-12T07:29:35.794Z,10.13
2022-09-12T07:31:40.708Z,14.20
2022-09-12T07:33:45.115Z,12.60
2022-09-12T07:35:49.579Z,12.00
2022-09-12T07:37:52.998Z,10.73
2022-09-12T07:39:57.519Z,12.73
2022-09-12T07:42:01.430Z,10.67
2022-09-12T07:44:06.635Z,14.90
2022-09-12T07:46:12.241Z,13.13
2022-09-12T07:48:17.387Z,12.93
2022-09-12T07:50:20.728Z,14.00
2022-09-12T07:52:24.396Z,12.87
2022-09-12T07:54:27.868Z,17.17
2022-09-12T07:56:34.626Z,14.77
2022-09-12T07:58:42.196Z,13.60
2022-09-12T08:00:45.938Z,15.60
2022-09-12T08:02:54.030Z,14.57
2022-09-12T08:04:57.424Z,14.83
2022-09-12T08:07:00.857Z,19.77
2022-09-12T08:09:05.237Z,16.37
2022-09-12T08:11:10.936Z,13.47
2022-09-12T08:13:14.567Z,14.67
2022-09-12T08:15:18.121Z,12.03
2022-09-12T08:17:21.965Z,10.30
2022-09-12T08:19:26.692Z,11.57
2022-09-12T08:21:31.895Z,13.83
2022-09-12T08:23:35.811Z,14.10
2022-09-12T08:25:39.185Z,14.80
2022-09-12T08:27:43.995Z,9.43
2022-09-12T08:29:47.329Z,10.60
2022-09-12T08:31:55.151Z,11.23
2022-09-12T08:34:24.763Z,11.83
2022-09-12T08:36:30.238Z,13.47
2022-09-12T08:38:33.651Z,12.10
2022-09-12T08:40:48.898Z,10.23
2022-09-12T08:43:00.209Z,11.50
2022-09-12T08:45:15.920Z,13.43
2022-09-12T08:47:24.753Z,12.23
2022-09-12T08:49:34.505Z,10.20
2022-09-12T08:51:40.964Z,9.80
2022-09-12T08:53:48.104Z,8.37
2022-09-12T08:55:54.660Z,8.43
2022-09-12T08:58:00.090Z,12.93
2022-09-12T09:00:07.938Z,10.07
2022-09-12T09:02:34.438Z,10.43
2022-09-12T09:04:50.745Z,8.93
2022-09-12T09:07:15.449Z,13.60
2022-09-12T09:09:31.557Z,13.73
2022-09-12T09:11:48.162Z,10.93
2022-09-12T09:14:21.997Z,10.63
2022-09-12T09:16:32.919Z,8.93
2022-09-12T09:18:38.151Z,8.73
2022-09-12T09:20:46.729Z,10.53
2022-09-12T09:22:56.814Z,10.80
2022-09-12T09:25:06.192Z,8.13
2022-09-12T09:27:39.171Z,13.27
2022-09-12T09:29:45.594Z,10.73
2022-09-12T09:31:53.118Z,8.67
2022-09-12T09:33:56.693Z,6.67
2022-09-12T09:36:12.395Z,9.93
2022-09-12T09:38:25.440Z,8.63
2022-09-12T09:40:39.684Z,7.60
2022-09-12T09:42:48.794Z,8.10
2022-09-12T09:44:55.598Z,6.87
2022-09-12T09:47:01.222Z,5.87
2022-09-12T09:49:07.040Z,5.90
2022-09-12T09:51:10.708Z,5.80
2022-09-12T09:53:35.023Z,16.67
2022-09-12T09:55:43.407Z,9.43
2022-09-12T09:57:51.241Z,7.80
2022-09-12T09:59:54.982Z,6.00
2022-09-12T10:02:03.477Z,5.67
2022-09-12T10:04:07.248Z,5.20
2022-09-12T10:06:26.070Z,5.30
2022-09-12T10:08:33.109Z,5.07
2022-09-12T10:10:36.541Z,5.80
2022-09-12T10:12:40.042Z,6.07
2022-09-12T10:14:43.331Z,5.70
2022-09-12T10:16:53.396Z,4.40
2022-09-12T10:18:59.121Z,6.27
2022-09-12T10:21:03.615Z,5.27
2022-09-12T10:23:30.222Z,5.50
2022-09-12T10:25:35.963Z,5.57
2022-09-12T10:27:39.852Z,5.33
2022-09-12T10:29:47.805Z,7.00
2022-09-12T10:31:54.070Z,7.20
2022-09-12T10:34:01.044Z,5.10
2022-09-12T10:36:05.145Z,5.20
2022-09-12T10:38:17.996Z,6.10
2022-09-12T10:40:26.423Z,4.70
2022-09-12T10:42:52.669Z,5.23
2022-09-12T10:44:56.268Z,4.40
2022-09-12T10:47:30.410Z,4.80
2022-09-12T10:50:22.093Z,4.50
2022-09-12T10:57:21.119Z,4.43
2022-09-12T10:59:40.197Z,4.50
2022-09-12T11:01:47.208Z,4.20
2022-09-12T11:04:08.300Z,3.90
2022-09-12T11:06:17.599Z,4.67
2022-09-12T11:08:52.121Z,3.40
2022-09-12T11:11:01.107Z,3.30
2022-09-12T11:13:22.332Z,3.27
2022-09-12T11:15:52.157Z,7.87
2022-09-12T11:18:01.751Z,3.60
2022-09-12T11:20:22.671Z,4.40
2022-09-12T11:22:41.543Z,3.37
2022-09-12T11:25:19.282Z,3.70
2022-09-12T11:27:42.163Z,4.10
2022-09-12T11:29:50.187Z,3.90
2022-09-12T11:32:12.945Z,3.70
2022-09-12T11:34:25.279Z,4.60
2022-09-12T11:36:34.855Z,5.17
2022-09-12T11:38:58.811Z,4.83
2022-09-12T11:41:06.464Z,5.60
2022-09-12T11:43:54.958Z,3.13
2022-09-12T12:01:31.369Z,3.10
2022-09-12T12:04:00.145Z,3.80
2022-09-12T12:06:15.628Z,4.80
2022-09-12T12:08:19.596Z,3.83
2022-09-12T12:10:27.405Z,3.63
2022-09-12T12:12:31.305Z,3.87
2022-09-12T12:14:42.474Z,2.90
2022-09-12T12:16:47.068Z,4.00
2022-09-12T12:18:56.308Z,4.43
2022-09-12T12:21:31.344Z,4.00
2022-09-12T12:23:36.534Z,3.77
2022-09-12T12:25:42.959Z,4.30
2022-09-12T12:27:51.845Z,3.37
2022-09-12T12:29:55.756Z,3.50
2022-09-12T12:32:25.039Z,3.03
2022-09-12T12:34:30.925Z,5.00
2022-09-12T12:36:41.428Z,3.27
2022-09-12T12:38:46.076Z,2.30
2022-09-12T12:40:50.431Z,3.57
2022-09-12T12:43:06.153Z,2.60
2022-09-12T12:45:42.690Z,7.13
2022-09-12T12:47:48.821Z,2.93
2022-09-12T12:49:54.472Z,2.80
2022-09-12T12:52:02.399Z,2.17
2022-09-12T12:54:35.308Z,3.43
2022-09-12T12:56:43.421Z,2.90
2022-09-12T12:58:49.739Z,2.50
2022-09-12T13:01:07.031Z,2.63
2022-09-12T13:05:18.231Z,2.00
2022-09-12T13:25:53.973Z,4.87
2022-09-12T13:28:06.187Z,2.30
2022-09-12T13:34:00.931Z,2.40
2022-09-12T14:34:20.463Z,3.00
2022-09-12T14:36:27.310Z,2.50
2022-09-12T14:38:36.537Z,2.70
2022-09-12T14:40:43.516Z,3.03
2022-09-12T14:42:50.004Z,3.77
2022-09-12T14:44:58.035Z,4.43
2022-09-12T14:47:13.766Z,4.63
2022-09-12T14:49:21.597Z,3.17
2022-09-12T14:51:28.664Z,3.10
2022-09-12T14:53:33.819Z,3.20
2022-09-12T14:55:45.470Z,3.63
2022-09-12T14:57:50.482Z,3.00
2022-09-12T14:59:54.673Z,3.10
2022-09-12T15:02:23.756Z,2.87
2022-09-12T15:04:40.472Z,3.57
2022-09-12T15:06:43.999Z,3.40
2022-09-12T15:08:47.617Z,2.97
2022-09-12T15:10:50.963Z,3.60
2022-09-12T15:13:14.014Z,3.17
2022-09-12T15:15:19.676Z,3.63
2022-09-12T15:17:22.932Z,2.50
2022-09-12T15:19:27.957Z,2.90
2022-09-12T15:21:32.836Z,2.80
2022-09-12T15:23:40.178Z,2.63
2022-09-12T15:25:50.420Z,3.83
2022-09-12T15:27:56.005Z,3.23
2022-09-12T15:30:03.689Z,2.90
2022-09-12T15:40:34.366Z,3.70
2022-09-12T15:42:38.730Z,3.33
2022-09-12T15:44:42.482Z,3.17
2022-09-12T15:46:46.116Z,3.30
2022-09-12T15:49:42.783Z,3.00
2022-09-12T15:51:55.277Z,3.37
2022-09-12T15:53:58.823Z,3.43
2022-09-12T16:03:39.136Z,2.80
2022-09-12T16:05:42.854Z,2.83
2022-09-12T16:07:46.414Z,3.40
2022-09-12T16:09:50.045Z,3.20
2022-09-12T16:11:54.796Z,3.50
2022-09-12T16:13:58.328Z,3.20
2022-09-12T16:16:01.982Z,2.43
2022-09-12T16:18:05.487Z,2.87
2022-09-12T16:20:10.114Z,2.50
2022-09-12T16:22:13.476Z,6.43
2022-09-12T16:24:16.938Z,4.77
2022-09-12T17:20:29.052Z,3.50
2022-09-12T17:22:56.964Z,3.70
2022-09-12T17:36:27.375Z,4.13
2022-09-12T17:38:34.654Z,4.23
2022-09-12T17:40:58.631Z,3.70
2022-09-12T17:43:01.916Z,4.47
2022-09-12T17:45:06.375Z,3.50
2022-09-12T17:47:09.662Z,3.37
2022-09-12T17:49:15.103Z,3.43
2022-09-12T17:51:18.585Z,2.93
2022-09-12T17:53:21.995Z,3.50
2022-09-12T17:55:27.474Z,3.07
2022-09-12T17:57:30.727Z,3.50
2022-09-12T17:59:34.108Z,3.40
2022-09-12T18:01:55.271Z,3.27
2022-09-12T18:04:00.538Z,3.43
2022-09-12T18:06:03.919Z,3.37
2022-09-12T18:08:07.257Z,3.50
2022-09-12T18:10:11.937Z,3.77
2022-09-12T18:12:20.017Z,5.10
2022-09-12T18:14:24.007Z,3.90
2022-09-12T18:16:28.185Z,4.50
2022-09-12T18:18:31.882Z,3.47
2022-09-12T18:20:35.285Z,3.77
2022-09-12T18:22:38.624Z,3.03
2022-09-12T18:24:42.028Z,3.70
2022-09-12T18:26:45.377Z,3.50
2022-09-12T18:28:50.063Z,3.60
2022-09-12T18:30:53.814Z,3.10
2022-09-12T18:32:57.121Z,3.33
2022-09-12T18:35:00.953Z,3.90
2022-09-12T18:37:05.269Z,3.50
2022-09-12T18:39:08.702Z,4.17
2022-09-12T18:41:14.604Z,3.87
2022-09-12T18:43:17.991Z,3.60
2022-09-12T18:45:22.649Z,4.30
2022-09-12T18:47:26.425Z,5.40
2022-09-12T18:49:29.956Z,4.60
2022-09-12T18:51:36.212Z,3.53
2022-09-12T18:53:39.956Z,3.33
2022-09-12T18:55:43.275Z,3.77
2022-09-12T18:57:46.799Z,3.30
2022-09-12T18:59:50.162Z,3.70
2022-09-12T19:01:54.894Z,4.10
2022-09-12T19:03:58.984Z,3.13
2022-09-12T19:06:02.300Z,3.40
2022-09-12T19:08:05.570Z,3.47
2022-09-12T19:10:09.972Z,3.60
2022-09-12T19:12:13.379Z,4.00
2022-09-12T19:14:17.652Z,3.90
2022-09-12T19:16:23.325Z,3.50
2022-09-12T19:18:28.326Z,4.70
2022-09-12T19:20:31.926Z,11.40
2022-09-12T19:22:35.350Z,6.20
2022-09-12T19:24:39.708Z,4.17
2022-09-12T19:26:43.136Z,3.50
2022-09-12T19:28:47.029Z,4.27
2022-09-12T19:30:50.494Z,10.00
2022-09-12T19:32:53.884Z,5.17
2022-09-12T19:34:58.608Z,4.80
2022-09-12T19:37:01.937Z,4.23
2022-09-12T19:39:05.702Z,4.20
2022-09-12T19:41:14.675Z,4.00
2022-09-12T19:43:18.624Z,4.50
2022-09-12T19:45:21.983Z,4.80
2022-09-12T19:47:26.137Z,5.00
2022-09-12T19:49:29.416Z,4.10
2022-09-12T19:51:34.304Z,4.17
2022-09-12T19:53:38.272Z,5.60
2022-09-12T19:55:41.625Z,4.00
2022-09-12T19:57:45.065Z,4.80
2022-09-12T19:59:48.707Z,4.40
2022-09-12T20:01:52.806Z,3.80
2022-09-12T20:03:57.161Z,4.53
2022-09-12T20:06:03.610Z,3.80
2022-09-12T20:08:08.469Z,5.20
2022-09-12T20:10:12.028Z,4.90
2022-09-12T20:12:15.756Z,4.83
2022-09-12T20:14:19.244Z,5.20
2022-09-12T20:16:25.573Z,4.33
2022-09-12T20:18:31.161Z,3.87
2022-09-12T20:20:34.489Z,8.90
2022-09-12T20:22:40.132Z,3.50
2022-09-12T20:24:45.057Z,3.27
2022-09-12T20:26:48.473Z,3.70
2022-09-12T20:28:52.089Z,4.13
2022-09-12T20:30:55.423Z,4.07
2022-09-12T20:32:59.915Z,4.97
2022-09-12T20:35:03.385Z,3.60
2022-09-12T20:37:06.867Z,4.60
2022-09-12T20:39:14.403Z,3.60
2022-09-12T20:41:20.936Z,3.73
2022-09-12T20:43:24.290Z,4.27
2022-09-12T20:45:27.615Z,5.97
2022-09-12T20:47:31.379Z,9.13
2022-09-12T20:49:34.648Z,8.20
2022-09-12T20:51:38.490Z,5.47
2022-09-12T20:53:41.823Z,5.33
2022-09-12T20:55:50.951Z,4.00
2022-09-12T20:57:55.595Z,3.20
2022-09-12T20:59:58.934Z,5.43
2022-09-12T21:02:02.426Z,3.70
2022-09-12T21:04:05.960Z,3.70
2022-09-12T21:06:10.720Z,3.90
2022-09-12T21:08:14.467Z,4.03
2022-09-12T21:10:19.196Z,3.73
2022-09-12T21:12:22.842Z,3.97
2022-09-12T21:14:27.530Z,3.67
2022-09-12T21:16:30.906Z,4.80
2022-09-12T21:18:35.777Z,3.83
2022-09-12T21:20:39.097Z,3.30
2022-09-12T21:22:42.573Z,3.40
2022-09-12T21:24:45.884Z,3.73
2022-09-12T21:26:49.353Z,3.50
2022-09-12T21:28:52.648Z,7.10
2022-09-12T21:30:57.669Z,3.67
2022-09-12T21:33:01.227Z,4.27
2022-09-12T21:35:05.734Z,4.20
2022-09-12T21:37:09.133Z,4.27
2022-09-12T21:39:12.390Z,4.10
2022-09-12T21:41:18.337Z,4.10
2022-09-12T21:43:21.734Z,3.67
2022-09-12T21:45:25.144Z,4.53
2022-09-12T21:47:29.959Z,5.37
2022-09-12T21:49:36.131Z,3.93
2022-09-12T21:51:39.500Z,4.07
2022-09-12T21:53:42.970Z,5.63
2022-09-12T21:55:46.289Z,5.17
2022-09-12T21:57:49.716Z,3.93
2022-09-12T21:59:53.049Z,6.43
2022-09-12T22:01:56.360Z,4.20
2022-09-12T22:04:04.515Z,6.63
2022-09-12T22:06:07.995Z,5.50
2022-09-12T22:08:12.283Z,4.77
2022-09-12T22:10:16.214Z,3.70
2022-09-12T22:12:20.310Z,4.70
2022-09-12T22:14:23.654Z,6.77
2022-09-12T22:16:27.056Z,7.17
2022-09-12T22:18:30.359Z,6.27
2022-09-12T22:20:34.954Z,4.70
2022-09-12T22:22:55.984Z,4.33
2022-09-12T22:24:59.256Z,3.90
2022-09-12T22:27:04.762Z,5.73
2022-09-12T22:29:09.985Z,4.60
2022-09-12T22:31:14.296Z,4.87
2022-09-12T22:33:17.780Z,4.27
2022-09-12T22:35:21.378Z,4.20
2022-09-12T22:37:26.448Z,3.83
2022-09-12T22:39:29.856Z,5.03
2022-09-12T22:41:33.168Z,4.30
2022-09-12T22:43:36.989Z,4.10
2022-09-12T22:45:41.900Z,3.60
2022-09-12T22:47:46.305Z,5.87
2022-09-12T22:49:49.752Z,4.07
2022-09-12T22:51:53.129Z,4.93
2022-09-12T22:53:57.737Z,3.80
2022-09-12T22:56:01.181Z,3.97
2022-09-12T22:58:04.603Z,3.60
2022-09-12T23:00:10.439Z,5.00
2022-09-12T23:02:13.799Z,3.33
2022-09-12T23:04:17.071Z,4.30
2022-09-12T23:06:21.029Z,3.37
2022-09-12T23:08:27.315Z,4.10
2022-09-12T23:10:32.403Z,4.37
2022-09-12T23:12:35.697Z,4.23
2022-09-12T23:14:38.990Z,3.27
2022-09-12T23:16:42.212Z,3.70
2022-09-12T23:18:45.936Z,4.20
2022-09-12T23:20:57.590Z,4.23
2022-09-12T23:23:02.204Z,4.60
2022-09-12T23:25:06.477Z,3.50
2022-09-12T23:27:11.235Z,5.03
2022-09-12T23:29:14.585Z,3.33
2022-09-12T23:31:18.298Z,4.00
2022-09-12T23:33:22.103Z,4.40
2022-09-12T23:35:25.378Z,3.63
2022-09-12T23:37:28.629Z,3.93
2022-09-12T23:39:32.302Z,5.70
2022-09-12T23:41:35.567Z,5.20
2022-09-12T23:43:40.395Z,5.07
2022-09-12T23:45:43.739Z,5.87
2022-09-12T23:47:47.120Z,4.83
2022-09-12T23:49:50.438Z,6.97
2022-09-12T23:51:53.794Z,4.30
2022-09-12T23:53:57.098Z,4.23
2022-09-12T23:56:00.517Z,5.53
2022-09-12T23:58:03.820Z,4.57
